DTW weather

Public forecast

Using degrees Fahrenheit for public forecast. Weather courtesy of forecast.io.

Current aviation weather report (METAR) for Detroit Metropolitan Wayne County Airport

Retrieved 2020/08/15 15:53 UTC (46 minutes ago):

KDTW 151553Z VRB03KT 10SM FEW180 SCT250 27/18 A2996 RMK AO2 SLP141 T02720178

Aviation forecast (TAF) for Detroit Metropolitan Wayne County Airport

Retrieved 2020/08/15 12:22 UTC (4 hours ago):

TAF KDTW 151120Z 1512/1618 04004KT P6SM BKN080 BKN200 FM151400 14006KT P6SM SCT070 BKN200 PROB30 1521/1524 4SM -TSRA SCT040CB BKN070 FM160000 17006KT P6SM BKN120 FM161200 20007KT P6SM -SHRA BKN060 OVC120